Time;durP1;ratioP1;P1;durP2;ratioP2;P2;SDS_P1;SDS_P2;PMS_P1;PMS_P2;Temp;Humidity;BMP_temperature;BMP_pressure;BME280_temperature;BME280_humidity;BME280_pressure;Samples;Min_cycle;Max_cycle;Signal;HPM_P1;HPM_P2
2022/02/02 00:04:26;;;;;;;15.10;7.30;;;;;;;3.54;57.08;99842.79;117374;1182;22030;-53
2022/02/02 00:07:09;;;;;;;14.00;7.00;;;;;;;3.54;57.05;99837.57;117326;1179;21861;-63
2022/02/02 00:09:41;;;;;;;13.30;7.00;;;;;;;3.55;56.95;99836.55;117220;1186;21855;-63
2022/02/02 00:15:03;;;;;;;17.50;7.90;;;;;;;3.56;57.21;99837.94;117329;1182;23071;-62
2022/02/02 00:22:35;;;;;;;15.50;8.00;;;;;;;3.57;57.02;99828.41;117333;1185;21986;-63
2022/02/02 00:27:33;;;;;;;13.70;8.30;;;;;;;3.64;57.23;99817.70;117372;1185;21860;-64
2022/02/02 00:30:04;;;;;;;15.20;9.00;;;;;;;3.66;57.04;99815.64;117297;1185;24273;-53
2022/02/02 00:32:51;;;;;;;17.20;9.50;;;;;;;3.68;57.00;99811.49;117203;1185;21913;-53
2022/02/02 00:35:24;;;;;;;13.10;7.70;;;;;;;3.69;56.95;99809.41;117325;1185;22856;-53
2022/02/02 00:37:52;;;;;;;14.30;7.40;;;;;;;3.70;56.97;99803.52;117333;1183;23541;-63
2022/02/02 00:40:21;;;;;;;13.50;7.70;;;;;;;3.71;57.11;99800.23;117323;1183;23255;-62
2022/02/02 00:42:51;;;;;;;13.90;7.30;;;;;;;3.74;56.94;99792.45;117318;1181;21902;-61
2022/02/02 00:45:20;;;;;;;15.20;7.80;;;;;;;3.74;56.88;99791.05;117275;1182;21898;-52
2022/02/02 00:47:51;;;;;;;11.70;7.70;;;;;;;3.74;56.92;99787.05;117336;1185;22868;-51
2022/02/02 00:50:19;;;;;;;12.00;7.40;;;;;;;3.72;56.78;99778.72;117319;1185;23628;-51
2022/02/02 00:52:51;;;;;;;12.10;7.80;;;;;;;3.71;56.95;99772.81;117261;1185;23455;-62
2022/02/02 00:55:19;;;;;;;14.80;7.80;;;;;;;3.68;57.10;99770.71;117125;1182;23911;-61
2022/02/02 00:57:47;;;;;;;14.90;7.70;;;;;;;3.67;57.10;99766.71;117243;1186;23428;-64
2022/02/02 01:00:17;;;;;;;13.30;8.00;;;;;;;3.69;57.01;99769.50;117342;1181;23636;-63
2022/02/02 01:02:46;;;;;;;13.30;8.10;;;;;;;3.69;56.96;99762.91;117326;1185;21850;-63
2022/02/02 01:05:14;;;;;;;16.90;7.70;;;;;;;3.70;57.02;99764.13;117336;1176;23443;-53
2022/02/02 01:10:23;;;;;;;14.80;7.70;;;;;;;3.68;57.01;99758.05;117305;1182;24165;-62
2022/02/02 01:21:31;;;;;;;13.50;6.90;;;;;;;3.75;57.22;99751.13;117314;1185;21858;-62
2022/02/02 01:29:33;;;;;;;12.00;7.60;;;;;;;3.79;57.11;99741.62;117343;1185;23445;-63
2022/02/02 01:32:01;;;;;;;15.50;8.70;;;;;;;3.81;57.10;99737.28;117260;1181;22620;-52
2022/02/02 01:34:30;;;;;;;15.30;7.50;;;;;;;3.82;57.21;99736.95;117365;1180;23461;-53
2022/02/02 01:36:59;;;;;;;13.20;7.70;;;;;;;3.82;57.03;99734.16;117319;1185;22725;-63
2022/02/02 01:39:29;;;;;;;13.30;8.30;;;;;;;3.82;57.21;99731.91;117170;1182;23451;-53
2022/02/02 01:41:59;;;;;;;14.10;7.70;;;;;;;3.82;56.96;99726.35;117291;1182;22643;-53
2022/02/02 01:47:00;;;;;;;14.80;8.50;;;;;;;3.70;57.31;99721.27;117279;1185;23455;-54
2022/02/02 01:55:03;;;;;;;14.60;9.30;;;;;;;3.55;57.01;99709.91;116891;1185;22796;-52
2022/02/02 02:00:34;;;;;;;25.80;12.50;;;;;;;3.38;56.95;99699.22;116953;1188;21825;-52
2022/02/02 02:03:03;;;;;;;20.00;11.80;;;;;;;3.31;56.98;99697.11;117292;1182;22647;-59
2022/02/02 02:05:31;;;;;;;22.00;11.70;;;;;;;3.24;56.97;99696.02;117206;1185;21877;-63
2022/02/02 02:08:00;;;;;;;18.80;11.50;;;;;;;3.17;56.94;99692.15;117330;1181;22643;-53
2022/02/02 02:10:29;;;;;;;18.90;11.10;;;;;;;3.08;56.93;99688.46;117186;1182;23448;-53
2022/02/02 02:13:03;;;;;;;20.70;11.90;;;;;;;3.04;57.15;99684.09;117206;1182;21855;-63
2022/02/02 02:15:32;;;;;;;22.20;11.50;;;;;;;2.99;57.11;99678.52;117218;1178;22621;-53
2022/02/02 02:18:01;;;;;;;17.00;10.70;;;;;;;2.95;57.05;99673.27;117351;1182;22643;-63
2022/02/02 02:20:29;;;;;;;19.00;11.50;;;;;;;2.93;57.16;99666.85;117205;1185;21892;-64
2022/02/02 02:22:57;;;;;;;22.30;12.10;;;;;;;2.92;57.01;99661.64;117330;1176;21854;-52
2022/02/02 02:25:29;;;;;;;18.50;11.00;;;;;;;2.92;57.18;99660.08;117352;1182;23449;-52
2022/02/02 02:28:11;;;;;;;20.10;11.20;;;;;;;2.94;57.19;99660.27;117155;1185;21866;-64
2022/02/02 02:31:00;;;;;;;19.50;10.90;;;;;;;2.96;57.06;99660.98;117309;1185;21834;-54
2022/02/02 02:58:15;;;;;;;20.20;10.70;;;;;;;3.07;57.23;99635.93;117106;1186;22937;-52
2022/02/02 03:01:11;;;;;;;17.50;10.80;;;;;;;3.06;57.26;99639.74;117080;1183;23564;-53
2022/02/02 04:09:42;;;;;;;15.70;10.70;;;;;;;3.52;57.60;99604.77;117170;1186;22948;-63
2022/02/02 04:12:27;;;;;;;18.00;10.50;;;;;;;3.54;57.61;99601.48;117239;1185;21878;-53
2022/02/02 04:59:30;;;;;;;14.80;9.70;;;;;;;3.97;57.69;99606.29;116791;1189;21859;-63
2022/02/02 05:07:50;;;;;;;19.30;11.50;;;;;;;4.02;57.69;99614.11;116997;1188;21857;-64
2022/02/02 05:11:32;;;;;;;;;;;;;;;4.02;57.65;99622.97;116934;1188;23702;-55
2022/02/02 05:18:56;;;;;;;20.30;12.10;;;;;;;3.98;57.86;99641.36;117324;1182;22014;-68
2022/02/02 05:51:30;;;;;;;27.80;14.70;;;;;;;4.36;57.83;99627.71;117276;1184;22919;-56
2022/02/02 05:53:59;;;;;;;32.50;14.90;;;;;;;4.39;57.77;99629.12;117230;1182;22929;-68
2022/02/02 05:56:28;;;;;;;29.10;15.70;;;;;;;4.41;57.81;99627.36;117204;1183;23669;-68
2022/02/02 05:58:56;;;;;;;27.10;15.90;;;;;;;4.43;57.56;99629.11;116950;1183;23713;-51
2022/02/02 06:01:24;;;;;;;32.10;16.10;;;;;;;4.46;57.68;99633.79;116944;1187;21967;-67
2022/02/02 06:03:59;;;;;;;28.90;17.40;;;;;;;4.48;57.70;99635.37;117034;1182;24605;-67
2022/02/02 06:06:28;;;;;;;30.30;17.10;;;;;;;4.51;57.80;99641.27;117273;1181;22960;-51
2022/02/02 06:08:56;;;;;;;37.10;21.70;;;;;;;4.52;57.85;99640.92;117274;1182;21855;-51
2022/02/02 06:11:25;;;;;;;31.00;18.40;;;;;;;4.56;57.94;99646.31;117258;1185;21850;-51
2022/02/02 06:13:56;;;;;;;31.30;17.80;;;;;;;4.59;57.84;99645.80;117201;1186;23499;-67
2022/02/02 06:16:28;;;;;;;31.90;16.90;;;;;;;4.63;57.74;99641.45;117204;1186;23581;-65
2022/02/02 06:18:59;;;;;;;29.80;16.50;;;;;;;4.66;57.62;99635.02;117283;1185;21878;-52
2022/02/02 06:21:32;;;;;;;37.30;17.90;;;;;;;4.66;57.78;99627.38;117276;1183;22657;-52
2022/02/02 06:24:09;;;;;;;40.60;27.10;;;;;;;4.69;57.73;99632.23;117294;1185;21864;-63
2022/02/02 06:26:45;;;;;;;37.30;19.70;;;;;;;4.73;57.94;99640.41;117301;1182;21867;-51
2022/02/02 06:29:14;;;;;;;43.10;20.60;;;;;;;4.71;57.88;99647.71;117324;1185;22383;-67
2022/02/02 06:31:42;;;;;;;40.40;22.40;;;;;;;4.67;57.90;99655.00;117402;1185;21851;-51
2022/02/02 06:34:13;;;;;;;36.10;21.20;;;;;;;4.64;57.76;99659.52;117298;1185;23450;-51
2022/02/02 06:36:41;;;;;;;35.20;20.00;;;;;;;4.61;57.79;99655.89;117263;1181;23473;-66
2022/02/02 06:39:11;;;;;;;36.30;17.60;;;;;;;4.57;57.71;99653.09;117307;1185;21907;-58
2022/02/02 06:41:39;;;;;;;31.00;18.70;;;;;;;4.54;57.62;99655.35;117339;1184;21842;-66
2022/02/02 06:44:08;;;;;;;36.80;19.90;;;;;;;4.51;57.79;99652.73;117325;1181;24142;-66
2022/02/02 06:46:39;;;;;;;44.30;21.80;;;;;;;4.49;57.51;99652.05;117247;1185;21902;-51
2022/02/02 06:49:09;;;;;;;37.40;19.70;;;;;;;4.49;57.62;99654.30;117339;1185;23602;-51
2022/02/02 06:51:47;;;;;;;38.80;20.70;;;;;;;4.52;57.84;99658.83;117286;1185;21893;-66
2022/02/02 06:54:26;;;;;;;38.70;20.40;;;;;;;4.55;57.78;99660.40;117243;1182;22752;-51
2022/02/02 06:57:12;;;;;;;35.60;19.50;;;;;;;4.54;57.51;99657.10;117263;1183;22932;-66
2022/02/02 07:02:51;;;;;;;34.90;19.20;;;;;;;4.54;57.73;99654.83;117320;1184;21971;-67
2022/02/02 07:19:55;;;;;;;36.50;19.70;;;;;;;4.59;57.72;99640.76;117256;1184;21915;-67
2022/02/02 07:22:50;;;;;;;39.50;21.40;;;;;;;4.63;57.80;99631.38;117381;1185;21850;-67
2022/02/02 07:30:44;;;;;;;54.90;29.00;;;;;;;4.75;57.85;99621.11;117042;1187;22922;-65
2022/02/02 07:33:18;;;;;;;51.20;25.90;;;;;;;4.78;57.96;99616.77;117274;1185;24215;-64
2022/02/02 07:36:04;;;;;;;46.70;24.10;;;;;;;4.78;57.99;99610.68;117292;1182;22567;-54
2022/02/02 07:38:56;;;;;;;44.40;21.80;;;;;;;4.81;57.75;99605.83;117314;1184;21853;-52
2022/02/02 07:41:35;;;;;;;44.70;23.50;;;;;;;4.87;57.99;99597.64;117328;1185;21916;-65
2022/02/02 07:44:11;;;;;;;52.30;26.00;;;;;;;4.92;57.80;99598.66;117316;1181;22925;-52
2022/02/02 07:46:44;;;;;;;56.50;28.80;;;;;;;4.97;57.83;99599.02;117284;1186;21934;-53
2022/02/02 07:49:12;;;;;;;59.40;32.00;;;;;;;5.02;58.17;99594.48;117276;1183;21882;-65
2022/02/02 07:51:42;;;;;;;53.50;29.10;;;;;;;5.06;58.08;99592.91;117012;1187;21897;-64
2022/02/02 07:54:17;;;;;;;57.60;22.60;;;;;;;5.12;57.95;99598.63;117326;1184;21877;-53
2022/02/02 07:56:58;;;;;;;54.30;26.70;;;;;;;5.17;57.84;99592.19;117284;1181;23561;-65
2022/02/02 07:59:41;;;;;;;54.60;25.80;;;;;;;5.24;57.85;99591.46;117075;1187;21855;-53
2022/02/02 08:02:12;;;;;;;48.80;27.30;;;;;;;5.23;57.95;99594.95;117308;1185;21901;-53
2022/02/02 08:04:40;;;;;;;;;;;;;;;5.18;57.65;99592.52;117336;1176;21842;-65
2022/02/02 08:07:13;;;;;;;46.30;22.60;;;;;;;5.15;57.75;99592.02;117098;1183;24210;-52
2022/02/02 08:09:48;;;;;;;44.80;22.60;;;;;;;5.13;57.69;99592.89;116952;1185;21906;-53
2022/02/02 08:12:20;;;;;;;46.80;21.70;;;;;;;5.11;57.73;99588.55;117017;1181;23454;-64
2022/02/02 08:14:55;;;;;;;48.20;25.10;;;;;;;5.11;57.64;99589.59;117140;1186;21856;-64
2022/02/02 08:17:24;;;;;;;45.50;22.60;;;;;;;5.13;57.82;99586.80;117114;1182;22069;-64
2022/02/02 08:19:52;;;;;;;42.20;23.00;;;;;;;5.13;57.60;99590.79;117075;1184;23127;-64
2022/02/02 08:22:20;;;;;;;45.20;23.80;;;;;;;5.14;57.76;99584.20;117172;1184;23477;-57
2022/02/02 08:24:49;;;;;;;44.80;24.40;;;;;;;5.18;57.80;99585.91;117129;1178;21890;-53
2022/02/02 08:27:19;;;;;;;45.80;22.70;;;;;;;5.20;57.97;99590.10;116985;1187;21881;-65
2022/02/02 08:29:47;;;;;;;48.50;24.70;;;;;;;5.20;57.67;99595.13;116981;1187;22944;-63
2022/02/02 08:32:16;;;;;;;47.20;23.30;;;;;;;5.17;57.90;99588.70;117374;1185;21862;-64
2022/02/02 08:34:48;;;;;;;58.40;28.00;;;;;;;5.15;57.61;99591.49;117343;1184;22866;-64
2022/02/02 08:37:17;;;;;;;48.80;24.50;;;;;;;5.13;57.83;99591.15;117363;1179;24162;-50
2022/02/02 08:40:00;;;;;;;51.20;24.80;;;;;;;5.12;57.92;99590.10;117348;1185;23499;-50
2022/02/02 08:42:31;;;;;;;41.50;21.40;;;;;;;5.13;57.61;99591.48;117295;1182;23748;-50
2022/02/02 08:45:18;;;;;;;44.30;22.90;;;;;;;5.10;57.62;99593.60;117338;1176;21854;-65
2022/02/02 08:47:54;;;;;;;49.30;23.90;;;;;;;5.07;57.81;99593.95;117279;1185;22662;-64
2022/02/02 08:50:31;;;;;;;41.90;21.80;;;;;;;5.09;57.80;99598.64;117316;1182;22828;-50
2022/02/02 08:53:10;;;;;;;35.80;19.30;;;;;;;5.11;57.58;99598.45;117299;1176;22889;-65
2022/02/02 09:00:52;;;;;;;;;;;;;;;5.08;57.87;99595.86;117308;1183;23456;-66
2022/02/02 09:06:09;;;;;;;44.20;23.50;;;;;;;5.10;58.00;99592.03;117324;1176;21996;-65
2022/02/02 09:08:37;;;;;;;43.90;22.00;;;;;;;5.09;57.91;99590.29;117354;1186;23452;-50
2022/02/02 09:25:17;;;;;;;42.60;20.70;;;;;;;5.11;57.65;99575.50;117255;1185;23453;-51
2022/02/02 09:34:07;;;;;;;45.90;22.40;;;;;;;5.22;58.08;99554.08;117227;1184;23590;-66
2022/02/02 09:36:13;;;;;;;43.00;21.90;;;;;;;5.25;57.70;99545.38;117263;1185;22619;-50
2022/02/02 09:38:43;;;;;;;39.70;19.90;;;;;;;5.27;57.74;99537.53;117257;1182;24198;-50
2022/02/02 09:43:45;;;;;;;38.50;20.00;;;;;;;5.33;57.85;99531.76;117218;1182;23457;-65
2022/02/02 09:46:17;;;;;;;34.10;17.50;;;;;;;5.37;57.98;99533.48;117236;1185;21864;-63
2022/02/02 09:51:21;;;;;;;35.20;18.20;;;;;;;5.47;58.17;99526.48;117313;1184;23529;-64
2022/02/02 09:54:10;;;;;;;30.90;16.70;;;;;;;5.55;58.43;99524.35;117078;1186;21905;-50
2022/02/02 10:15:39;;;;;;;30.70;17.40;;;;;;;6.01;58.43;99494.65;117390;1181;21987;-53
2022/02/02 10:18:13;;;;;;;29.90;16.20;;;;;;;6.11;58.53;99492.84;117168;1184;21861;-65
2022/02/02 10:20:42;;;;;;;29.80;16.10;;;;;;;6.19;58.54;99486.16;117225;1185;21858;-52
2022/02/02 10:23:11;;;;;;;35.60;18.30;;;;;;;6.22;58.38;99481.58;117073;1185;22040;-53
2022/02/02 10:25:43;;;;;;;31.00;16.30;;;;;;;6.29;58.29;99480.83;117261;1177;22808;-52
2022/02/02 10:28:19;;;;;;;32.10;16.40;;;;;;;6.36;58.52;99481.83;117243;1182;22951;-65
2022/02/02 10:30:53;;;;;;;31.00;16.00;;;;;;;6.43;58.57;99483.48;117492;1185;21872;-51
2022/02/02 10:33:24;;;;;;;30.50;16.80;;;;;;;6.47;58.37;99483.45;117554;1182;23526;-65
2022/02/02 10:36:01;;;;;;;30.70;16.10;;;;;;;6.51;58.51;99485.15;117290;1178;21846;-52
2022/02/02 10:38:38;;;;;;;30.70;17.80;;;;;;;6.54;58.52;99484.44;117248;1185;21883;-65
2022/02/02 10:41:26;;;;;;;34.60;15.70;;;;;;;6.55;58.24;99483.02;117164;1186;22694;-50
2022/02/02 10:44:18;;;;;;;28.20;15.10;;;;;;;6.54;58.04;99482.00;117185;1181;22925;-65
2022/02/02 10:55:03;;;;;;;36.00;18.40;;;;;;;6.33;58.04;99459.38;117181;1186;21856;-52
2022/02/02 11:08:04;;;;;;;25.90;13.50;;;;;;;5.95;58.01;99465.23;117235;1178;23608;-52
2022/02/02 11:10:33;;;;;;;27.50;15.10;;;;;;;5.95;57.93;99462.98;117067;1185;22925;-65
2022/02/02 11:13:02;;;;;;;29.10;15.10;;;;;;;5.90;57.89;99467.89;117058;1186;22702;-64
2022/02/02 11:15:46;;;;;;;30.60;18.50;;;;;;;5.86;58.22;99478.20;117256;1185;21868;-65
2022/02/02 11:18:28;;;;;;;29.60;15.80;;;;;;;5.82;57.90;99473.02;117201;1186;21902;-64
2022/02/02 11:21:08;;;;;;;29.10;15.20;;;;;;;5.79;57.75;99468.84;117172;1185;21847;-65
2022/02/02 11:23:44;;;;;;;28.10;15.40;;;;;;;5.80;57.90;99462.04;117042;1186;21864;-66
2022/02/02 11:26:13;;;;;;;25.60;14.00;;;;;;;5.82;58.20;99451.06;117258;1178;23617;-63
2022/02/02 11:28:47;;;;;;;26.60;14.90;;;;;;;5.88;58.31;99451.55;117245;1181;22215;-51
2022/02/02 11:31:18;;;;;;;23.20;13.40;;;;;;;5.93;58.18;99451.51;117202;1182;21863;-65
2022/02/02 11:33:48;;;;;;;;;;;;;;;5.94;58.39;99448.88;117073;1186;22944;-65
2022/02/02 11:36:40;;;;;;;22.80;12.70;;;;;;;5.99;58.25;99450.76;117067;1176;23453;-52
2022/02/02 11:39:37;;;;;;;24.80;12.90;;;;;;;6.04;58.24;99449.70;117112;1185;21920;-51
2022/02/02 11:42:19;;;;;;;25.50;13.20;;;;;;;6.13;58.35;99452.77;117236;1184;23552;-51
2022/02/02 11:44:50;;;;;;;20.80;11.30;;;;;;;6.19;58.20;99460.17;117219;1180;21856;-65
2022/02/02 11:47:40;;;;;;;18.70;10.60;;;;;;;6.22;58.16;99458.42;117088;1182;23751;-51
2022/02/02 11:50:09;;;;;;;23.60;12.10;;;;;;;6.21;58.39;99456.86;117229;1185;21855;-50
2022/02/02 11:52:40;;;;;;;23.00;13.10;;;;;;;6.17;58.49;99452.90;117292;1182;21855;-52
2022/02/02 11:55:11;;;;;;;27.40;16.30;;;;;;;6.11;58.48;99454.35;117222;1185;21843;-52
2022/02/02 11:58:00;;;;;;;25.20;15.10;;;;;;;6.09;58.19;99452.44;117227;1185;21895;-66
2022/02/02 12:00:41;;;;;;;24.60;15.50;;;;;;;6.10;58.24;99455.05;117331;1185;22928;-52
2022/02/02 12:09:38;;;;;;;20.40;13.40;;;;;;;6.10;58.37;99453.13;117222;1182;23551;-65
2022/02/02 12:49:38;;;;;;;15.50;9.70;;;;;;;6.00;58.11;99458.06;117248;1183;22816;-52
2022/02/02 13:00:22;;;;;;;14.40;9.90;;;;;;;6.01;58.34;99466.09;117260;1178;21847;-52
2022/02/02 13:02:51;;;;;;;15.50;9.40;;;;;;;6.02;58.31;99467.83;117207;1183;24319;-66
2022/02/02 13:05:24;;;;;;;27.80;16.40;;;;;;;6.02;58.35;99463.48;117131;1182;23458;-53
2022/02/02 13:07:53;;;;;;;22.60;14.10;;;;;;;6.03;58.43;99472.52;117274;1185;21861;-54
2022/02/02 13:10:26;;;;;;;24.40;14.40;;;;;;;6.02;58.30;99479.84;117272;1185;23478;-65
2022/02/02 13:13:12;;;;;;;16.70;11.30;;;;;;;6.01;58.34;99480.72;117252;1184;22625;-53
2022/02/02 13:23:51;;;;;;;21.20;11.30;;;;;;;6.04;58.29;99481.73;117278;1182;23524;-68
2022/02/02 13:26:38;;;;;;;25.00;13.60;;;;;;;6.04;58.40;99484.88;117134;1184;23631;-67
2022/02/02 13:46:20;;;;;;;53.10;21.40;;;;;;;6.01;58.30;99492.38;117272;1184;23661;-66
2022/02/02 13:52:50;;;;;;;31.90;14.30;;;;;;;6.01;58.04;99494.65;117288;1179;23479;-67
2022/02/02 14:01:04;;;;;;;16.40;10.40;;;;;;;5.90;57.89;99497.67;117334;1185;22903;-65
2022/02/02 14:31:10;;;;;;;30.90;20.40;;;;;;;5.74;58.09;99493.78;117194;1181;23494;-55
2022/02/02 14:33:57;;;;;;;38.50;22.80;;;;;;;5.72;57.83;99496.92;117084;1178;21870;-65
2022/02/02 14:36:30;;;;;;;19.20;13.30;;;;;;;5.69;57.89;99499.04;117204;1186;21858;-55
2022/02/02 14:39:07;;;;;;;22.00;12.60;;;;;;;5.65;57.96;99502.71;117291;1185;21882;-66
2022/02/02 14:41:44;;;;;;;15.90;10.20;;;;;;;5.54;57.89;99507.80;117270;1183;23002;-55
2022/02/02 14:44:22;;;;;;;16.20;9.10;;;;;;;5.40;57.63;99509.98;117207;1178;22629;-54
2022/02/02 14:47:15;;;;;;;19.50;12.10;;;;;;;5.26;57.75;99511.27;117239;1185;23650;-66
2022/02/02 15:23:45;;;;;;;42.30;20.80;;;;;;;5.12;57.75;99509.06;119381;1182;21862;-63
2022/02/02 15:30:44;;;;;;;39.10;16.60;;;;;;;4.91;57.78;99512.96;117374;1183;23579;-56
2022/02/02 15:33:25;;;;;;;45.40;18.60;;;;;;;4.87;57.83;99524.27;117163;1186;21849;-53
2022/02/02 15:36:15;;;;;;;75.00;29.00;;;;;;;4.80;57.94;99526.73;117159;1185;23710;-63
2022/02/02 15:38:47;;;;;;;50.70;21.20;;;;;;;4.73;57.76;99526.73;117237;1185;22161;-64
2022/02/02 15:41:34;;;;;;;57.50;24.40;;;;;;;4.68;57.81;99531.61;117235;1186;21989;-53
2022/02/02 15:58:13;;;;;;;21.30;11.30;;;;;;;4.58;57.97;99547.96;117305;1185;23622;-53
2022/02/02 16:03:43;;;;;;;21.10;11.70;;;;;;;4.50;57.68;99556.65;117193;1185;23581;-65
2022/02/02 16:06:21;;;;;;;20.90;10.60;;;;;;;4.44;57.66;99549.70;117246;1182;23584;-66
2022/02/02 16:08:57;;;;;;;18.90;10.70;;;;;;;4.38;57.77;99551.98;117298;1185;23568;-54
2022/02/02 16:11:38;;;;;;;16.60;9.60;;;;;;;4.30;57.67;99550.09;117230;1182;23911;-65
2022/02/02 16:14:13;;;;;;;20.10;11.40;;;;;;;4.24;57.67;99554.06;117137;1178;23492;-53
2022/02/02 16:17:00;;;;;;;503.30;162.30;;;;;;;4.18;57.65;99555.28;117241;1185;22946;-62
2022/02/02 16:24:40;;;;;;;510.50;158.80;;;;;;;4.16;57.89;99556.50;117203;1186;21869;-52
2022/02/02 16:25:30;;;;;;;81.60;31.60;;;;;;;4.06;57.80;99561.52;117213;1186;21901;-63
2022/02/02 16:36:08;;;;;;;26.40;14.20;;;;;;;3.70;57.64;99570.83;117188;1185;23452;-52
2022/02/02 16:38:40;;;;;;;20.80;11.70;;;;;;;3.65;57.57;99573.92;117267;1184;21859;-62
2022/02/02 16:42:56;;;;;;;25.90;13.40;;;;;;;3.60;57.62;99571.32;117195;1176;21856;-53
2022/02/02 16:43:56;;;;;;;19.90;10.10;;;;;;;3.55;57.60;99573.55;117206;1176;21996;-63
2022/02/02 16:46:25;;;;;;;22.10;12.10;;;;;;;3.49;57.78;99579.09;117247;1180;23464;-62
2022/02/02 16:48:53;;;;;;;55.70;28.60;;;;;;;3.49;57.74;99583.42;117062;1179;23548;-51
2022/02/02 16:51:21;;;;;;;43.30;23.30;;;;;;;3.51;57.88;99581.88;117176;1186;23654;-63
2022/02/02 16:53:52;;;;;;;43.90;23.70;;;;;;;3.50;57.71;99583.60;117301;1185;21888;-63
2022/02/02 16:56:31;;;;;;;;;;;;;;;3.48;57.77;99585.50;117117;1181;21842;-53
2022/02/02 17:34:52;;;;;;;106.20;53.10;;;;;;;2.89;57.54;99609.98;117285;1185;22107;-51
2022/02/02 17:40:14;;;;;;;66.60;37.20;;;;;;;2.94;57.80;99615.73;117283;1182;24154;-62
2022/02/02 18:19:12;;;;;;;35.80;18.20;;;;;;;2.52;57.83;99604.52;117158;1179;21855;-53
2022/02/02 18:21:40;;;;;;;43.20;21.90;;;;;;;2.52;57.76;99602.79;117246;1186;22895;-54
2022/02/02 18:24:19;;;;;;;122.60;43.40;;;;;;;2.54;57.82;99599.86;117259;1182;22930;-54
2022/02/02 18:26:56;;;;;;;43.90;21.90;;;;;;;2.55;57.73;99600.90;117184;1185;23455;-64
2022/02/02 18:29:45;;;;;;;38.50;20.30;;;;;;;2.55;57.81;99600.90;117231;1185;23457;-52
2022/02/02 18:35:03;;;;;;;50.80;26.50;;;;;;;2.60;57.93;99614.46;117334;1185;23566;-53
2022/02/02 18:48:51;;;;;;;53.90;27.10;;;;;;;2.55;57.68;99607.49;117221;1183;21918;-64
2022/02/02 18:56:30;;;;;;;39.60;22.80;;;;;;;2.37;57.61;99605.44;117360;1183;21859;-64
2022/02/02 19:38:27;;;;;;;52.40;28.30;;;;;;;2.10;57.76;99652.80;117213;1186;21903;-53
2022/02/02 20:06:22;;;;;;;65.40;34.50;;;;;;;2.35;58.05;99646.11;116951;1186;23496;-65
2022/02/02 20:11:43;;;;;;;;;;;;;;;2.47;57.92;99656.44;116931;1185;23458;-54
2022/02/02 20:14:12;;;;;;;40.90;23.10;;;;;;;2.46;57.91;99653.31;116957;1184;22899;-65
2022/02/02 20:16:40;;;;;;;42.30;26.60;;;;;;;2.45;57.70;99658.13;116819;1189;23552;-63
2022/02/02 20:19:11;;;;;;;39.40;23.20;;;;;;;2.45;57.89;99655.02;116986;1186;21869;-52
2022/02/02 20:21:47;;;;;;;36.60;22.40;;;;;;;2.48;57.86;99657.48;116959;1186;22870;-65
2022/02/02 20:24:20;;;;;;;34.10;21.60;;;;;;;2.50;57.95;99659.92;116940;1186;23455;-66
2022/02/02 20:26:49;;;;;;;34.70;21.80;;;;;;;2.49;57.96;99662.34;116923;1185;24340;-66
2022/02/02 20:29:17;;;;;;;33.00;19.70;;;;;;;2.51;58.02;99664.60;116991;1188;23449;-66
2022/02/02 20:31:46;;;;;;;30.10;19.40;;;;;;;2.54;57.93;99666.02;116940;1186;23448;-66
2022/02/02 20:34:14;;;;;;;30.40;19.10;;;;;;;2.56;57.92;99669.69;117053;1185;23474;-53
2022/02/02 20:36:42;;;;;;;33.20;19.40;;;;;;;2.57;57.93;99675.40;117271;1182;23502;-53
2022/02/02 20:39:36;;;;;;;31.10;19.40;;;;;;;2.57;58.01;99678.52;117086;1185;23009;-53
2022/02/02 20:42:07;;;;;;;31.50;18.70;;;;;;;2.57;58.05;99672.45;117180;1182;23458;-53
2022/02/02 20:44:52;;;;;;;30.10;19.60;;;;;;;2.57;57.91;99672.45;117328;1181;23484;-53
2022/02/02 21:11:22;;;;;;;28.70;16.80;;;;;;;2.60;57.96;99684.09;117340;1183;23452;-64
2022/02/02 21:13:54;;;;;;;28.50;17.50;;;;;;;2.61;57.87;99685.48;117179;1181;22236;-52
2022/02/02 21:16:28;;;;;;;30.60;18.40;;;;;;;2.59;57.91;99688.40;117209;1186;22226;-53
2022/02/02 21:19:01;;;;;;;29.10;18.30;;;;;;;2.58;57.88;99684.77;117124;1179;21854;-64
2022/02/02 21:21:38;;;;;;;31.70;19.10;;;;;;;2.58;58.00;99685.98;117200;1186;23474;-65
2022/02/02 21:29:15;;;;;;;38.10;23.70;;;;;;;2.56;57.99;99696.00;117346;1182;23875;-52
2022/02/02 21:31:44;;;;;;;42.30;25.50;;;;;;;2.55;57.86;99700.67;117341;1185;21867;-54
2022/02/02 21:34:12;;;;;;;42.40;26.60;;;;;;;2.57;57.95;99702.08;117313;1183;24182;-65
2022/02/02 21:36:40;;;;;;;45.20;27.20;;;;;;;2.56;57.83;99701.20;117354;1185;22830;-54
2022/02/02 21:39:18;;;;;;;45.70;28.50;;;;;;;2.56;57.91;99701.20;117192;1185;21857;-53
2022/02/02 21:41:50;;;;;;;48.20;29.60;;;;;;;2.58;57.90;99704.16;117223;1183;22236;-65
2022/02/02 21:44:19;;;;;;;44.80;26.30;;;;;;;2.58;57.82;99702.09;117129;1186;23473;-64
2022/02/02 21:46:48;;;;;;;57.60;31.20;;;;;;;2.58;57.96;99702.09;117342;1177;22946;-64
2022/02/02 21:49:19;;;;;;;60.70;33.20;;;;;;;2.58;58.00;99703.13;117006;1189;22108;-65
2022/02/02 21:52:07;;;;;;;54.40;30.90;;;;;;;2.57;58.02;99707.28;117292;1185;21865;-64
2022/02/02 21:54:36;;;;;;;51.70;28.60;;;;;;;2.54;58.08;99705.85;117242;1184;21850;-53
2022/02/02 21:57:05;;;;;;;49.30;28.60;;;;;;;2.50;57.90;99704.61;117225;1186;23451;-65
2022/02/02 21:59:34;;;;;;;57.60;31.40;;;;;;;2.49;57.89;99701.82;117316;1186;22624;-65
2022/02/02 22:02:06;;;;;;;58.50;30.20;;;;;;;2.50;58.08;99703.57;117106;1186;23619;-53
2022/02/02 22:04:34;;;;;;;56.20;30.40;;;;;;;2.52;58.20;99704.80;117112;1186;22969;-65
2022/02/02 22:07:03;;;;;;;55.30;29.60;;;;;;;2.54;58.03;99709.66;117163;1186;21842;-53
2022/02/02 22:09:31;;;;;;;60.80;30.20;;;;;;;2.55;58.02;99709.85;117269;1185;21899;-64
2022/02/02 22:12:00;;;;;;;50.70;27.60;;;;;;;2.54;58.14;99709.15;117234;1185;21901;-53
2022/02/02 22:14:28;;;;;;;53.00;28.50;;;;;;;2.54;58.15;99710.01;117213;1182;23552;-53
2022/02/02 22:17:00;;;;;;;50.90;27.30;;;;;;;2.55;58.16;99710.88;117233;1182;23451;-53
2022/02/02 22:19:29;;;;;;;46.70;25.00;;;;;;;2.57;58.18;99714.20;117198;1186;22951;-64
2022/02/02 22:21:57;;;;;;;42.30;22.50;;;;;;;2.58;58.24;99711.27;117244;1182;23460;-65
2022/02/02 22:24:26;;;;;;;33.30;21.70;;;;;;;2.61;58.16;99711.30;117185;1176;23522;-54
2022/02/02 22:26:54;;;;;;;35.80;23.00;;;;;;;2.64;58.11;99709.42;117302;1185;23742;-65
2022/02/02 22:29:22;;;;;;;35.00;22.50;;;;;;;2.66;58.06;99705.27;117196;1183;21898;-53
2022/02/02 22:31:51;;;;;;;34.00;20.80;;;;;;;2.67;58.10;99707.88;117099;1185;21963;-55
2022/02/02 22:34:19;;;;;;;33.40;20.30;;;;;;;2.67;58.19;99701.98;117404;1181;23474;-53
2022/02/02 22:36:50;;;;;;;43.20;24.90;;;;;;;2.67;58.26;99705.80;117314;1182;24168;-65
2022/02/02 22:39:20;;;;;;;39.90;23.90;;;;;;;2.67;58.16;99713.59;117317;1185;23475;-65
2022/02/02 22:41:49;;;;;;;50.60;27.10;;;;;;;2.66;58.04;99712.89;117172;1182;21824;-53
2022/02/02 22:44:17;;;;;;;41.60;24.70;;;;;;;2.65;58.06;99717.73;117156;1186;21865;-53
2022/02/02 22:46:46;;;;;;;45.20;25.70;;;;;;;2.65;58.19;99719.66;117142;1185;21871;-53
2022/02/02 22:49:14;;;;;;;49.80;26.60;;;;;;;2.64;58.22;99720.68;117147;1182;21853;-65
2022/02/02 22:51:44;;;;;;;46.80;28.40;;;;;;;2.61;58.19;99722.91;117208;1182;23519;-65
2022/02/02 22:54:12;;;;;;;45.50;27.80;;;;;;;2.60;58.30;99724.11;117120;1183;23276;-54
2022/02/02 22:56:42;;;;;;;42.70;24.70;;;;;;;2.60;58.06;99720.64;117206;1186;21850;-54
2022/02/02 22:59:11;;;;;;;37.30;22.00;;;;;;;2.59;58.35;99719.59;117222;1183;22619;-65
2022/02/02 23:01:40;;;;;;;41.70;24.70;;;;;;;2.59;58.20;99721.15;117322;1185;22971;-54
2022/02/02 23:04:08;;;;;;;42.60;25.90;;;;;;;2.57;58.10;99723.55;117219;1183;21852;-53
2022/02/02 23:06:38;;;;;;;42.70;24.10;;;;;;;2.57;58.20;99727.02;117118;1182;22897;-54
2022/02/02 23:09:08;;;;;;;44.90;25.50;;;;;;;2.56;58.26;99728.73;117159;1185;23547;-54
2022/02/02 23:11:37;;;;;;;;;;;;;;;2.53;58.10;99726.98;117130;1182;22940;-53